createdAt,value
2017-08-03T00:01:04.801Z,101267
2017-08-03T00:03:32.954Z,101266
2017-08-03T00:06:01.111Z,101255
2017-08-03T00:08:29.282Z,101260
2017-08-03T00:10:57.426Z,101251
2017-08-03T00:13:25.567Z,101257
2017-08-03T00:15:53.771Z,101251
2017-08-03T00:18:21.937Z,101249
2017-08-03T00:20:50.625Z,101240
2017-08-03T00:23:18.803Z,101241
2017-08-03T00:25:46.975Z,101230
2017-08-03T00:28:15.122Z,101235
2017-08-03T00:30:43.944Z,101248
2017-08-03T00:33:12.086Z,101243
2017-08-03T00:35:40.233Z,101243
2017-08-03T00:38:08.419Z,101237
2017-08-03T00:40:36.585Z,101231
2017-08-03T00:43:04.730Z,101223
2017-08-03T00:45:33.702Z,101229
2017-08-03T00:48:02.641Z,101221
2017-08-03T00:50:30.794Z,101216
2017-08-03T00:52:59.749Z,101209
2017-08-03T00:55:27.917Z,101205
2017-08-03T00:57:56.083Z,101198
2017-08-03T01:00:24.290Z,101213
2017-08-03T01:02:52.438Z,101212
2017-08-03T01:05:20.585Z,101201
2017-08-03T01:07:48.858Z,101207
2017-08-03T01:10:17.006Z,101208
2017-08-03T01:12:45.914Z,101201
2017-08-03T01:15:14.110Z,101215
2017-08-03T01:17:42.285Z,101202
2017-08-03T01:20:10.442Z,101198
2017-08-03T01:22:38.641Z,101206
2017-08-03T01:25:06.789Z,101188
2017-08-03T01:27:34.956Z,101194
2017-08-03T01:30:03.164Z,101184
2017-08-03T01:32:31.349Z,101187
2017-08-03T01:34:59.512Z,101194
2017-08-03T01:37:27.710Z,101183
2017-08-03T01:39:55.869Z,101183
2017-08-03T01:42:24.018Z,101170
2017-08-03T01:44:52.216Z,101167
2017-08-03T01:47:20.361Z,101167
2017-08-03T01:49:48.514Z,101164
2017-08-03T01:52:17.874Z,101150
2017-08-03T01:54:46.025Z,101157
2017-08-03T01:57:14.175Z,101148
2017-08-03T01:59:43.113Z,101136
2017-08-03T02:02:11.266Z,101141
2017-08-03T02:04:39.441Z,101134
2017-08-03T02:07:07.638Z,101138
2017-08-03T02:09:35.802Z,101131
2017-08-03T02:12:03.964Z,101123
2017-08-03T02:14:32.162Z,101114
2017-08-03T02:17:00.312Z,101117
2017-08-03T02:19:28.458Z,101115
2017-08-03T02:21:57.109Z,101120
2017-08-03T02:24:25.260Z,101107
2017-08-03T02:26:53.438Z,101091
2017-08-03T02:29:21.618Z,101093
2017-08-03T02:31:49.790Z,101104
2017-08-03T02:34:17.939Z,101103
2017-08-03T02:36:46.121Z,101100
2017-08-03T02:39:14.293Z,101094
2017-08-03T02:41:42.447Z,101087
2017-08-03T02:44:10.627Z,101082
2017-08-03T02:46:38.776Z,101079
2017-08-03T02:49:08.472Z,101079
2017-08-03T02:51:36.654Z,101075
2017-08-03T02:54:04.806Z,101069
2017-08-03T02:56:32.984Z,101065
2017-08-03T02:59:01.520Z,101057
2017-08-03T03:01:29.690Z,101047
2017-08-03T03:03:57.857Z,101043
2017-08-03T03:06:26.926Z,101036
2017-08-03T03:08:55.074Z,101045
2017-08-03T03:11:23.240Z,101047
2017-08-03T03:13:51.443Z,101050
2017-08-03T03:16:19.590Z,101052
2017-08-03T03:18:47.760Z,101041
2017-08-03T03:21:15.937Z,101039
2017-08-03T03:23:44.100Z,101037
2017-08-03T03:26:12.269Z,101044
2017-08-03T03:28:40.901Z,101040
2017-08-03T03:31:09.075Z,101034
2017-08-03T03:33:37.241Z,101039
2017-08-03T03:36:05.449Z,101016
2017-08-03T03:38:34.383Z,101022
2017-08-03T03:41:02.534Z,101025
2017-08-03T03:43:30.736Z,101009
2017-08-03T03:45:58.883Z,101028
2017-08-03T03:48:27.053Z,101023
2017-08-03T03:50:55.490Z,101008
2017-08-03T03:53:23.645Z,100994
2017-08-03T03:55:51.799Z,100998
2017-08-03T03:58:19.996Z,101001
2017-08-03T04:00:48.154Z,100999
2017-08-03T04:03:16.326Z,100990
2017-08-03T04:05:44.542Z,100987
2017-08-03T04:08:13.463Z,100990
2017-08-03T04:10:41.643Z,100971
2017-08-03T04:13:09.840Z,100973
2017-08-03T04:15:38.010Z,100975
2017-08-03T04:18:06.154Z,100974
2017-08-03T04:20:34.339Z,100964
2017-08-03T04:23:02.489Z,100961
2017-08-03T04:25:31.401Z,100965
2017-08-03T04:27:59.595Z,100974
2017-08-03T04:30:27.762Z,100985
2017-08-03T04:32:55.932Z,100972
2017-08-03T04:35:24.146Z,100972
2017-08-03T04:37:52.320Z,100957
2017-08-03T04:40:20.475Z,100955
2017-08-03T04:42:48.669Z,100957
2017-08-03T04:45:16.817Z,100968
2017-08-03T04:47:44.970Z,100962
2017-08-03T04:50:13.151Z,100956
2017-08-03T04:52:41.302Z,100969
2017-08-03T04:55:10.214Z,100955
2017-08-03T04:57:38.419Z,100947
2017-08-03T05:00:06.578Z,100928
2017-08-03T05:02:34.729Z,100941
2017-08-03T05:05:02.939Z,100944
2017-08-03T05:07:31.109Z,100942
2017-08-03T05:09:59.286Z,100944
2017-08-03T05:12:27.475Z,100931
2017-08-03T05:14:55.641Z,100925
2017-08-03T05:17:23.816Z,100922
2017-08-03T05:19:52.022Z,100927
2017-08-03T05:22:20.177Z,100929
2017-08-03T05:24:48.321Z,100939
2017-08-03T05:27:16.509Z,100928
2017-08-03T05:29:44.680Z,100921
2017-08-03T05:32:12.850Z,100918
2017-08-03T05:34:41.055Z,100915
2017-08-03T05:37:09.229Z,100913
2017-08-03T05:39:37.405Z,100900
2017-08-03T05:42:05.613Z,100894
2017-08-03T05:44:34.533Z,100898
2017-08-03T05:47:02.704Z,100893
2017-08-03T05:49:30.878Z,100872
2017-08-03T05:51:59.052Z,100864
2017-08-03T05:54:27.198Z,100867
2017-08-03T05:56:56.169Z,100875
2017-08-03T05:59:24.336Z,100874
2017-08-03T06:01:52.484Z,100868
2017-08-03T06:04:20.658Z,100863
2017-08-03T06:06:48.825Z,100851
2017-08-03T06:09:16.980Z,100857
2017-08-03T06:11:45.576Z,100849
2017-08-03T06:14:13.735Z,100850
2017-08-03T06:16:41.913Z,100848
2017-08-03T06:19:10.097Z,100824
2017-08-03T06:21:38.254Z,100824
2017-08-03T06:24:06.419Z,100826
2017-08-03T06:26:35.357Z,100825
2017-08-03T06:29:03.521Z,100817
2017-08-03T06:31:31.666Z,100827
2017-08-03T06:34:00.630Z,100831
2017-08-03T06:36:28.777Z,100835
2017-08-03T06:38:56.949Z,100836
2017-08-03T06:41:25.559Z,100837
2017-08-03T06:43:53.725Z,100848
2017-08-03T06:46:21.892Z,100847
2017-08-03T06:48:50.073Z,100843
2017-08-03T06:51:18.218Z,100819
2017-08-03T06:53:47.304Z,100803
2017-08-03T06:56:15.487Z,100775
2017-08-03T06:58:43.641Z,100770
2017-08-03T07:01:12.577Z,100766
2017-08-03T07:03:40.763Z,100781
2017-08-03T07:06:08.998Z,100782
2017-08-03T07:08:37.909Z,100808
2017-08-03T07:11:06.103Z,100802
2017-08-03T07:13:34.279Z,100801
2017-08-03T07:16:02.437Z,100794
2017-08-03T07:18:30.640Z,100796
2017-08-03T07:20:58.795Z,100782
2017-08-03T07:23:26.965Z,100778
2017-08-03T07:25:55.146Z,100774
2017-08-03T07:28:23.300Z,100780
2017-08-03T07:30:51.468Z,100772
2017-08-03T07:33:19.648Z,100777
2017-08-03T07:35:47.802Z,100771
2017-08-03T07:38:15.968Z,100769
2017-08-03T07:40:44.929Z,100778
2017-08-03T07:43:13.108Z,100757
2017-08-03T07:45:41.276Z,100745
2017-08-03T07:48:09.475Z,100743
2017-08-03T07:50:38.414Z,100729
2017-08-03T07:53:06.589Z,100727
2017-08-03T07:55:34.788Z,100715
2017-08-03T07:58:02.966Z,100712
2017-08-03T08:00:31.136Z,100726
2017-08-03T08:02:59.316Z,100722
2017-08-03T08:05:27.466Z,100725
2017-08-03T08:07:55.626Z,100730
2017-08-03T08:10:23.828Z,100723
2017-08-03T08:12:52.002Z,100722
2017-08-03T08:15:20.165Z,100713
2017-08-03T08:17:48.357Z,100701
2017-08-03T08:20:16.511Z,100705
2017-08-03T08:22:44.684Z,100708
2017-08-03T08:25:12.881Z,100707
2017-08-03T08:27:41.023Z,100704
2017-08-03T08:30:09.169Z,100692
2017-08-03T08:32:38.125Z,100684
2017-08-03T08:35:06.272Z,100679
2017-08-03T08:37:34.440Z,100680
2017-08-03T08:40:02.629Z,100681
2017-08-03T08:42:30.793Z,100672
2017-08-03T08:44:58.934Z,100668
2017-08-03T08:47:27.887Z,100646
2017-08-03T08:49:56.030Z,100624
2017-08-03T08:52:24.180Z,100626
2017-08-03T08:54:52.365Z,100611
2017-08-03T08:57:20.537Z,100606
2017-08-03T08:59:48.686Z,100596
2017-08-03T09:02:17.651Z,100603
2017-08-03T09:04:45.812Z,100603
2017-08-03T09:07:13.976Z,100610
2017-08-03T09:09:42.164Z,100596
2017-08-03T09:12:10.329Z,100583
2017-08-03T09:14:38.497Z,100600
2017-08-03T09:17:06.685Z,100605
2017-08-03T09:19:34.852Z,100589
2017-08-03T09:22:03.026Z,100595
2017-08-03T09:24:31.225Z,100590
2017-08-03T09:26:59.380Z,100596
2017-08-03T09:29:27.542Z,100588
2017-08-03T09:31:55.733Z,100562
2017-08-03T09:34:23.901Z,100558
2017-08-03T09:36:52.072Z,100559
2017-08-03T09:39:20.273Z,100559
2017-08-03T09:41:48.439Z,100560
2017-08-03T09:44:16.585Z,100558
2017-08-03T09:46:44.783Z,100556
2017-08-03T09:49:12.947Z,100556
2017-08-03T09:51:41.103Z,100550
2017-08-03T09:54:09.298Z,100553
2017-08-03T09:56:37.461Z,100540
2017-08-03T09:59:05.629Z,100535
2017-08-03T10:01:33.810Z,100527
2017-08-03T10:04:01.961Z,100530
2017-08-03T10:06:30.129Z,100529
2017-08-03T10:08:58.310Z,100530
2017-08-03T10:11:26.484Z,100540
2017-08-03T10:13:54.651Z,100530
2017-08-03T10:16:22.827Z,100535
2017-08-03T10:18:50.986Z,100527
2017-08-03T10:21:19.922Z,100526
2017-08-03T10:23:48.125Z,100523
2017-08-03T10:26:16.270Z,100532
2017-08-03T10:28:44.433Z,100520
2017-08-03T10:31:12.614Z,100529
2017-08-03T10:33:40.842Z,100519
2017-08-03T10:36:09.010Z,100517
2017-08-03T10:38:37.198Z,100516
2017-08-03T10:41:06.137Z,100509
2017-08-03T10:43:34.309Z,100518
2017-08-03T10:46:02.496Z,100493
2017-08-03T10:48:30.657Z,100479
2017-08-03T10:50:58.833Z,100467
2017-08-03T10:53:27.029Z,100467
2017-08-03T10:55:55.200Z,100470
2017-08-03T10:58:23.345Z,100468
2017-08-03T11:00:51.545Z,100453
2017-08-03T11:03:19.697Z,100445
2017-08-03T11:05:47.863Z,100426
2017-08-03T11:08:16.035Z,100453
2017-08-03T11:10:44.197Z,100453
2017-08-03T11:13:12.368Z,100457
2017-08-03T11:15:40.562Z,100465
2017-08-03T11:18:08.732Z,100468
2017-08-03T11:20:36.901Z,100460
2017-08-03T11:23:05.095Z,100462
2017-08-03T11:25:33.265Z,100428
2017-08-03T11:28:01.416Z,100443
2017-08-03T11:30:29.613Z,100437
2017-08-03T11:32:57.782Z,100423
2017-08-03T11:35:25.934Z,100413
2017-08-03T11:37:54.128Z,100423
2017-08-03T11:40:23.038Z,100444
2017-08-03T11:42:51.202Z,100426
2017-08-03T11:45:19.408Z,100427
2017-08-03T11:47:47.562Z,100428
2017-08-03T11:50:15.736Z,100419
2017-08-03T11:52:43.911Z,100398
2017-08-03T11:55:12.076Z,100396
2017-08-03T11:57:40.244Z,100402
2017-08-03T12:00:08.415Z,100402
2017-08-03T12:02:36.581Z,100394
2017-08-03T12:05:04.752Z,100398
2017-08-03T12:07:33.704Z,100400
2017-08-03T12:10:01.859Z,100389
2017-08-03T12:12:30.034Z,100384
2017-08-03T12:14:58.207Z,100385
2017-08-03T12:17:26.371Z,100375
2017-08-03T12:19:54.538Z,100369
2017-08-03T12:22:22.730Z,100368
2017-08-03T12:24:50.886Z,100372
2017-08-03T12:27:19.043Z,100379
2017-08-03T12:29:48.005Z,100381
2017-08-03T12:32:16.159Z,100399
2017-08-03T12:34:44.330Z,100391
2017-08-03T12:37:12.537Z,100384
2017-08-03T12:39:40.689Z,100409
2017-08-03T12:42:08.838Z,100387
2017-08-03T12:44:37.021Z,100394
2017-08-03T12:47:05.173Z,100400
2017-08-03T12:49:33.324Z,100384
2017-08-03T12:52:02.269Z,100396
2017-08-03T12:54:30.419Z,100394
2017-08-03T12:56:58.588Z,100393
2017-08-03T12:59:26.787Z,100385
2017-08-03T13:01:54.963Z,100398
2017-08-03T13:04:23.115Z,100386
2017-08-03T13:06:51.317Z,100392
2017-08-03T13:09:19.492Z,100393
2017-08-03T13:11:47.658Z,100385
2017-08-03T13:14:15.858Z,100376
2017-08-03T13:16:44.031Z,100376
2017-08-03T13:19:12.186Z,100403
2017-08-03T13:21:40.361Z,100395
2017-08-03T13:24:08.510Z,100384
2017-08-03T13:26:36.678Z,100418
2017-08-03T13:29:04.875Z,100394
2017-08-03T13:31:33.039Z,100385
2017-08-03T13:34:01.207Z,100386
2017-08-03T13:36:29.386Z,100371
2017-08-03T13:38:57.552Z,100376
2017-08-03T13:41:25.718Z,100371
2017-08-03T13:43:54.684Z,100364
2017-08-03T13:46:22.834Z,100370
2017-08-03T13:48:50.994Z,100370
2017-08-03T13:51:19.179Z,100380
2017-08-03T13:53:47.341Z,100372
2017-08-03T13:56:15.489Z,100373
2017-08-03T13:58:43.689Z,100375
2017-08-03T14:01:11.835Z,100367
2017-08-03T14:03:39.992Z,100384
2017-08-03T14:06:08.938Z,100397
2017-08-03T14:08:37.094Z,100424
2017-08-03T14:11:05.262Z,100417
2017-08-03T14:13:33.464Z,100451
2017-08-03T14:16:01.632Z,100460
2017-08-03T14:18:29.794Z,100454
2017-08-03T14:20:57.988Z,100462
2017-08-03T14:23:26.139Z,100464
2017-08-03T14:25:54.298Z,100454
2017-08-03T14:28:23.245Z,100463
2017-08-03T14:30:51.401Z,100469
2017-08-03T14:33:19.599Z,100492
2017-08-03T14:35:47.775Z,100502
2017-08-03T14:38:16.700Z,100514
2017-08-03T14:40:45.611Z,100527
2017-08-03T14:43:13.817Z,100525
2017-08-03T14:45:41.989Z,100532
2017-08-03T14:48:10.135Z,100520
2017-08-03T14:50:38.318Z,100517
2017-08-03T14:53:06.513Z,100520
2017-08-03T14:55:34.677Z,100513
2017-08-03T14:58:02.864Z,100523
2017-08-03T15:00:31.007Z,100518
2017-08-03T15:02:59.169Z,100517
2017-08-03T15:05:28.114Z,100510
2017-08-03T15:07:56.296Z,100513
2017-08-03T15:10:24.480Z,100512
2017-08-03T15:12:52.651Z,100522
2017-08-03T15:15:20.795Z,100522
2017-08-03T15:17:49.711Z,100529
2017-08-03T15:20:17.901Z,100527
2017-08-03T15:22:46.051Z,100524
2017-08-03T15:25:14.238Z,100518
2017-08-03T15:27:42.422Z,100523
2017-08-03T15:30:10.568Z,100518
2017-08-03T15:32:39.479Z,100514
2017-08-03T15:35:07.655Z,100519
2017-08-03T15:37:35.810Z,100527
2017-08-03T15:40:04.718Z,100508
2017-08-03T15:42:32.889Z,100511
2017-08-03T15:45:01.050Z,100520
2017-08-03T15:47:29.969Z,100534
2017-08-03T15:49:58.164Z,100534
2017-08-03T15:52:26.310Z,100522
2017-08-03T15:54:54.474Z,100525
2017-08-03T15:57:22.649Z,100531
2017-08-03T15:59:50.791Z,100527
2017-08-03T16:02:18.952Z,100540
2017-08-03T16:04:47.139Z,100534
2017-08-03T16:07:15.286Z,100539
2017-08-03T16:09:43.437Z,100530
2017-08-03T16:12:11.647Z,100527
2017-08-03T16:14:39.798Z,100527
2017-08-03T16:17:07.945Z,100525
2017-08-03T16:19:36.123Z,100542
2017-08-03T16:22:04.286Z,100534
2017-08-03T16:24:33.202Z,100533
2017-08-03T16:27:01.394Z,100534
2017-08-03T16:29:29.564Z,100538
2017-08-03T16:31:57.731Z,100542
2017-08-03T16:34:25.915Z,100545
2017-08-03T16:36:54.080Z,100546
2017-08-03T16:39:22.246Z,100553
2017-08-03T16:41:50.417Z,100546
2017-08-03T16:44:18.586Z,100550
2017-08-03T16:46:46.730Z,100564
2017-08-03T16:49:14.909Z,100565
2017-08-03T16:51:43.842Z,100566
2017-08-03T16:54:12.010Z,100551
2017-08-03T16:56:40.945Z,100562
2017-08-03T16:59:09.112Z,100567
2017-08-03T17:01:37.258Z,100570
2017-08-03T17:04:05.465Z,100562
2017-08-03T17:06:33.612Z,100572
2017-08-03T17:09:01.766Z,100572
2017-08-03T17:11:29.981Z,100568
2017-08-03T17:13:58.145Z,100572
2017-08-03T17:16:26.312Z,100575
2017-08-03T17:18:54.504Z,100578
2017-08-03T17:21:22.646Z,100588
2017-08-03T17:23:50.786Z,100583
2017-08-03T17:26:19.722Z,100592
2017-08-03T17:28:47.874Z,100583
2017-08-03T17:31:16.042Z,100589
2017-08-03T17:33:44.996Z,100591
2017-08-03T17:36:13.147Z,100595
2017-08-03T17:38:41.294Z,100600
2017-08-03T17:41:09.471Z,100598
2017-08-03T17:43:37.618Z,100590
2017-08-03T17:46:06.537Z,100593
2017-08-03T17:48:34.728Z,100596
2017-08-03T17:51:02.881Z,100588
2017-08-03T17:53:31.049Z,100583
2017-08-03T17:55:59.223Z,100588
2017-08-03T17:58:28.153Z,100596
2017-08-03T18:00:56.321Z,100598
2017-08-03T18:03:24.515Z,100590
2017-08-03T18:05:52.662Z,100595
2017-08-03T18:08:20.833Z,100602
2017-08-03T18:10:49.005Z,100601
2017-08-03T18:13:17.176Z,100603
2017-08-03T18:15:45.342Z,100608
2017-08-03T18:18:13.534Z,100612
2017-08-03T18:20:41.682Z,100608
2017-08-03T18:23:10.599Z,100611
2017-08-03T18:25:38.789Z,100614
2017-08-03T18:28:06.939Z,100610
2017-08-03T18:30:35.092Z,100613
2017-08-03T18:33:04.038Z,100602
2017-08-03T18:35:32.205Z,100608
2017-08-03T18:38:00.356Z,100613
2017-08-03T18:40:28.541Z,100609
2017-08-03T18:42:56.683Z,100614
2017-08-03T18:45:25.596Z,100609
2017-08-03T18:47:53.771Z,100618
2017-08-03T18:50:21.915Z,100627
2017-08-03T18:52:50.850Z,100627
2017-08-03T18:55:19.026Z,100632
2017-08-03T18:57:47.198Z,100629
2017-08-03T19:00:15.345Z,100633
2017-08-03T19:02:44.289Z,100633
2017-08-03T19:05:12.452Z,100623
2017-08-03T19:07:40.602Z,100639
2017-08-03T19:10:08.777Z,100628
2017-08-03T19:12:36.924Z,100634
2017-08-03T19:15:05.837Z,100634
2017-08-03T19:17:34.029Z,100640
2017-08-03T19:20:02.183Z,100646
2017-08-03T19:22:30.779Z,100649
2017-08-03T19:24:58.952Z,100651
2017-08-03T19:27:27.098Z,100650
2017-08-03T19:29:56.024Z,100653
2017-08-03T19:32:24.214Z,100659
2017-08-03T19:34:52.389Z,100663
2017-08-03T19:37:20.558Z,100655
2017-08-03T19:39:48.727Z,100656
2017-08-03T19:42:16.893Z,100662
2017-08-03T19:44:45.039Z,100660
2017-08-03T19:47:14.002Z,100657
2017-08-03T19:49:42.166Z,100666
2017-08-03T19:52:10.312Z,100667
2017-08-03T19:54:38.482Z,100667
2017-08-03T19:57:06.639Z,100673
2017-08-03T19:59:34.805Z,100672
2017-08-03T20:02:03.749Z,100660
2017-08-03T20:04:31.912Z,100664
2017-08-03T20:07:26.747Z,100662
2017-08-03T20:10:00.806Z,100669
2017-08-03T20:12:29.005Z,100663
2017-08-03T20:14:57.173Z,100671
2017-08-03T20:17:25.337Z,100675
2017-08-03T20:19:53.528Z,100679
2017-08-03T20:22:21.696Z,100675
2017-08-03T20:24:49.877Z,100676
2017-08-03T20:27:18.072Z,100678
2017-08-03T20:29:46.224Z,100670
2017-08-03T20:32:14.374Z,100671
2017-08-03T20:37:15.937Z,100683
2017-08-03T20:39:44.138Z,100675
2017-08-03T20:42:12.277Z,100673
2017-08-03T20:44:41.191Z,100679
2017-08-03T20:47:09.380Z,100684
2017-08-03T20:49:37.527Z,100675
2017-08-03T20:52:05.694Z,100674
2017-08-03T20:54:34.653Z,100687
2017-08-03T20:57:02.820Z,100691
2017-08-03T20:59:30.966Z,100679
2017-08-03T21:01:59.164Z,100682
2017-08-03T21:04:27.329Z,100678
2017-08-03T21:06:55.497Z,100689
2017-08-03T21:09:23.699Z,100692
2017-08-03T21:11:51.864Z,100686
2017-08-03T21:14:20.029Z,100679
2017-08-03T21:16:48.221Z,100681
2017-08-03T21:19:16.362Z,100682
2017-08-03T21:21:44.511Z,100670
2017-08-03T21:24:13.506Z,100675
2017-08-03T21:26:41.677Z,100674
2017-08-03T21:29:09.826Z,100663
2017-08-03T21:31:37.995Z,100670
2017-08-03T21:34:06.161Z,100662
2017-08-03T21:36:34.313Z,100667
2017-08-03T21:39:02.485Z,100671
2017-08-03T21:41:30.659Z,100666
2017-08-03T21:43:58.825Z,100667
2017-08-03T21:46:27.025Z,100671
2017-08-03T21:48:55.174Z,100672
2017-08-03T21:51:23.323Z,100664
2017-08-03T21:53:52.277Z,100666
2017-08-03T21:56:20.423Z,100666
2017-08-03T21:58:48.593Z,100672
2017-08-03T22:01:16.768Z,100668
2017-08-03T22:03:44.911Z,100674
2017-08-03T22:06:13.821Z,100670
2017-08-03T22:08:41.990Z,100679
2017-08-03T22:11:10.153Z,100690
2017-08-03T22:13:39.069Z,100675
2017-08-03T22:16:07.269Z,100673
2017-08-03T22:18:35.440Z,100678
2017-08-03T22:21:03.609Z,100661
2017-08-03T22:23:32.194Z,100665
2017-08-03T22:26:00.341Z,100679
2017-08-03T22:28:28.481Z,100669
2017-08-03T22:30:56.658Z,100672
2017-08-03T22:33:25.571Z,100674
2017-08-03T22:35:53.737Z,100676
2017-08-03T22:38:21.906Z,100685
2017-08-03T22:40:50.847Z,100668
2017-08-03T22:43:19.008Z,100675
2017-08-03T22:45:47.209Z,100667
2017-08-03T22:48:15.354Z,100677
2017-08-03T22:50:43.494Z,100671
2017-08-03T22:53:12.746Z,100670
2017-08-03T22:55:40.890Z,100655
2017-08-03T22:58:09.052Z,100656
2017-08-03T23:00:38.021Z,100659
2017-08-03T23:03:06.229Z,100653
2017-08-03T23:05:34.383Z,100645
2017-08-03T23:08:03.339Z,100630
2017-08-03T23:10:31.481Z,100634
2017-08-03T23:12:59.643Z,100623
2017-08-03T23:15:27.815Z,100625
2017-08-03T23:17:56.741Z,100625
2017-08-03T23:20:24.895Z,100623
2017-08-03T23:22:53.091Z,100619
2017-08-03T23:25:21.242Z,100621
2017-08-03T23:27:49.410Z,100628
2017-08-03T23:30:17.614Z,100629
2017-08-03T23:32:46.482Z,100627
2017-08-03T23:35:14.625Z,100625
2017-08-03T23:37:42.820Z,100617
2017-08-03T23:40:10.988Z,100622
2017-08-03T23:42:39.922Z,100622
2017-08-03T23:45:08.116Z,100613
2017-08-03T23:47:36.278Z,100620
2017-08-03T23:50:04.448Z,100624
2017-08-03T23:52:32.626Z,100619
2017-08-03T23:55:00.770Z,100618
2017-08-03T23:57:28.935Z,100618
2017-08-03T23:59:57.124Z,100600
